createdAt,value
2018-02-24T00:00:30.806Z,99799.50
2018-02-24T00:02:59.352Z,99795.17
2018-02-24T00:05:27.865Z,99792.97
2018-02-24T00:07:56.318Z,99792.76
2018-02-24T00:10:24.781Z,99787.08
2018-02-24T00:12:53.317Z,99791.33
2018-02-24T00:15:21.782Z,99789.94
2018-02-24T00:17:50.288Z,99778.84
2018-02-24T00:20:18.774Z,99781.52
2018-02-24T00:22:47.269Z,99774.92
2018-02-24T00:25:15.769Z,99783.83
2018-02-24T00:27:44.266Z,99776.22
2018-02-24T00:30:12.716Z,99783.45
2018-02-24T00:32:41.185Z,99781.03
2018-02-24T00:35:09.699Z,99783.57
2018-02-24T00:37:38.198Z,99788.36
2018-02-24T00:40:06.683Z,99780.72
2018-02-24T00:42:35.222Z,99773.34
2018-02-24T00:45:03.681Z,99771.98
2018-02-24T00:47:32.146Z,99763.02
2018-02-24T00:50:00.663Z,99756.61
2018-02-24T00:52:29.118Z,99748.23
2018-02-24T00:54:57.654Z,99744.20
2018-02-24T00:57:26.135Z,99744.10
2018-02-24T00:59:54.626Z,99742.22
2018-02-24T01:02:23.158Z,99737.89
2018-02-24T01:04:51.704Z,99727.33
2018-02-24T01:07:20.189Z,99733.95
2018-02-24T01:09:48.730Z,99736.43
2018-02-24T01:12:17.189Z,99726.80
2018-02-24T01:14:45.717Z,99731.98
2018-02-24T01:17:14.213Z,99730.34
2018-02-24T01:19:42.742Z,99727.77
2018-02-24T01:22:11.201Z,99728.16
2018-02-24T01:24:39.706Z,99721.14
2018-02-24T01:27:08.174Z,99722.17
2018-02-24T01:29:36.646Z,99718.34
2018-02-24T01:32:05.197Z,99722.34
2018-02-24T01:34:33.717Z,99715.65
2018-02-24T01:37:02.210Z,99708.06
2018-02-24T01:39:30.703Z,99712.72
2018-02-24T01:41:59.162Z,99707.36
2018-02-24T01:44:27.688Z,99706.43
2018-02-24T01:46:56.190Z,99700.53
2018-02-24T01:49:24.675Z,99700.62
2018-02-24T01:51:53.166Z,99697.63
2018-02-24T01:54:21.643Z,99700.21
2018-02-24T01:56:50.137Z,99691.84
2018-02-24T01:59:18.585Z,99696.82
2018-02-24T02:01:47.074Z,99698.69
2018-02-24T02:04:15.555Z,99699.92
2018-02-24T02:06:44.098Z,99696.92
2018-02-24T02:09:12.574Z,99699.94
2018-02-24T02:11:41.070Z,99693.41
2018-02-24T02:14:09.562Z,99697.02
2018-02-24T02:16:38.032Z,99697.23
2018-02-24T02:19:06.500Z,99692.65
2018-02-24T02:21:35.080Z,99693.76
2018-02-24T02:24:03.598Z,99669.09
2018-02-24T02:26:32.057Z,99684.67
2018-02-24T02:29:00.550Z,99686.50
2018-02-24T02:31:29.014Z,99680.03
2018-02-24T02:33:57.538Z,99676.30
2018-02-24T02:36:26.060Z,99679.84
2018-02-24T02:38:54.558Z,99673.53
2018-02-24T02:41:23.075Z,99671.58
2018-02-24T02:43:51.570Z,99665.83
2018-02-24T02:46:20.065Z,99663.57
2018-02-24T02:48:48.526Z,99659.77
2018-02-24T02:51:17.032Z,99655.32
2018-02-24T02:53:45.507Z,99662.89
2018-02-24T02:56:13.998Z,99651.10
2018-02-24T02:58:42.505Z,99652.97
2018-02-24T03:01:10.953Z,99652.55
2018-02-24T03:03:39.458Z,99636.81
2018-02-24T03:06:07.985Z,99627.94
2018-02-24T03:08:36.442Z,99634.22
2018-02-24T03:11:04.979Z,99631.31
2018-02-24T03:13:33.483Z,99631.86
2018-02-24T03:16:01.991Z,99627.63
2018-02-24T03:18:30.465Z,99621.63
2018-02-24T03:20:58.917Z,99624.19
2018-02-24T03:23:27.405Z,99621.01
2018-02-24T03:25:55.905Z,99621.19
2018-02-24T03:28:24.394Z,99623.59
2018-02-24T03:30:52.903Z,99620.37
2018-02-24T03:33:21.421Z,99606.52
2018-02-24T03:35:49.882Z,99592.03
2018-02-24T03:38:18.382Z,99610.13
2018-02-24T03:40:46.905Z,99610.85
2018-02-24T03:43:15.357Z,99613.53
2018-02-24T03:45:53.796Z,99612.08
2018-02-24T03:48:22.258Z,99612.71
2018-02-24T03:50:50.737Z,99612.28
2018-02-24T03:53:19.200Z,99604.72
2018-02-24T03:55:47.689Z,99597.08
2018-02-24T03:58:16.187Z,99601.20
2018-02-24T04:00:44.674Z,99597.70
2018-02-24T04:03:13.228Z,99597.78
2018-02-24T04:05:41.706Z,99593.43
2018-02-24T04:08:10.157Z,99592.62
2018-02-24T04:10:38.702Z,99578.66
2018-02-24T04:13:07.216Z,99588.59
2018-02-24T04:15:35.721Z,99582.27
2018-02-24T04:18:04.268Z,99560.58
2018-02-24T04:20:32.725Z,99577.44
2018-02-24T04:23:01.214Z,99572.67
2018-02-24T04:25:29.670Z,99573.61
2018-02-24T04:27:58.164Z,99565.13
2018-02-24T04:30:26.626Z,99557.28
2018-02-24T04:32:55.122Z,99558.02
2018-02-24T04:35:23.644Z,99552.92
2018-02-24T04:37:52.102Z,99551.80
2018-02-24T04:40:20.617Z,99555.62
2018-02-24T04:42:49.114Z,99552.33
2018-02-24T04:45:17.610Z,99545.28
2018-02-24T04:47:46.100Z,99543.00
2018-02-24T04:50:14.617Z,99541.34
2018-02-24T04:52:43.115Z,99538.88
2018-02-24T04:55:11.571Z,99544.66
2018-02-24T04:57:40.065Z,99541.13
2018-02-24T05:00:08.614Z,99524.91
2018-02-24T05:02:37.153Z,99548.59
2018-02-24T05:05:05.644Z,99549.83
2018-02-24T05:07:34.154Z,99548.08
2018-02-24T05:10:02.634Z,99530.58
2018-02-24T05:12:31.108Z,99546.63
2018-02-24T05:14:59.601Z,99543.53
2018-02-24T05:17:28.111Z,99545.91
2018-02-24T05:19:56.602Z,99549.33
2018-02-24T05:22:25.106Z,99557.71
2018-02-24T05:24:53.575Z,99554.80
2018-02-24T05:27:22.103Z,99557.27
2018-02-24T05:29:50.598Z,99548.69
2018-02-24T05:32:19.069Z,99560.47
2018-02-24T05:34:47.570Z,99552.60
2018-02-24T05:37:16.080Z,99557.08
2018-02-24T05:39:44.557Z,99550.35
2018-02-24T05:42:13.045Z,99551.56
2018-02-24T05:44:41.578Z,99553.97
2018-02-24T05:47:10.050Z,99553.13
2018-02-24T05:49:38.576Z,99552.96
2018-02-24T05:52:07.101Z,99543.23
2018-02-24T05:54:35.560Z,99541.55
2018-02-24T05:57:04.070Z,99547.95
2018-02-24T05:59:32.594Z,99549.52
2018-02-24T06:02:01.087Z,99548.99
2018-02-24T06:04:29.597Z,99551.09
2018-02-24T06:06:58.079Z,99560.69
2018-02-24T06:09:26.583Z,99556.44
2018-02-24T06:11:55.078Z,99555.31
2018-02-24T06:14:23.577Z,99559.11
2018-02-24T06:16:52.041Z,99561.89
2018-02-24T06:19:20.574Z,99556.30
2018-02-24T06:21:49.046Z,99561.16
2018-02-24T06:24:17.501Z,99555.06
2018-02-24T06:26:46.027Z,99549.06
2018-02-24T06:29:14.481Z,99552.59
2018-02-24T06:31:42.939Z,99551.11
2018-02-24T06:34:11.460Z,99541.53
2018-02-24T06:36:39.982Z,99537.70
2018-02-24T06:39:08.507Z,99538.50
2018-02-24T06:41:37.011Z,99532.89
2018-02-24T06:44:05.505Z,99524.52
2018-02-24T06:46:33.966Z,99518.80
2018-02-24T06:49:02.458Z,99513.56
2018-02-24T06:51:30.990Z,99515.38
2018-02-24T06:53:59.446Z,99508.73
2018-02-24T06:56:27.953Z,99511.77
2018-02-24T06:58:56.447Z,99510.69
2018-02-24T07:01:24.952Z,99507.67
2018-02-24T07:03:53.414Z,99501.81
2018-02-24T07:06:21.914Z,99502.97
2018-02-24T07:08:50.436Z,99502.35
2018-02-24T07:11:18.918Z,99505.73
2018-02-24T07:13:47.450Z,99500.80
2018-02-24T07:16:15.914Z,99498.40
2018-02-24T07:18:44.445Z,99495.59
2018-02-24T07:21:12.913Z,99505.42
2018-02-24T07:23:41.419Z,99498.89
2018-02-24T07:26:09.894Z,99503.05
2018-02-24T07:28:38.390Z,99495.80
2018-02-24T07:31:06.882Z,99497.33
2018-02-24T07:33:35.370Z,99489.16
2018-02-24T07:36:03.862Z,99496.71
2018-02-24T07:38:32.342Z,99496.39
2018-02-24T07:41:00.842Z,99498.00
2018-02-24T07:43:29.342Z,99490.98
2018-02-24T07:45:57.802Z,99479.64
2018-02-24T07:48:26.310Z,99495.39
2018-02-24T07:50:54.766Z,99489.37
2018-02-24T07:53:23.266Z,99496.70
2018-02-24T07:55:51.722Z,99491.23
2018-02-24T07:58:20.178Z,99486.42
2018-02-24T08:00:48.673Z,99493.52
2018-02-24T08:03:17.130Z,99490.35
2018-02-24T08:05:45.635Z,99489.62
2018-02-24T08:08:14.098Z,99496.88
2018-02-24T08:10:42.599Z,99494.71
2018-02-24T08:13:11.087Z,99496.14
2018-02-24T08:15:39.544Z,99494.56
2018-02-24T08:18:08.057Z,99492.50
2018-02-24T08:20:36.528Z,99500.76
2018-02-24T08:23:05.023Z,99499.81
2018-02-24T08:25:33.494Z,99498.59
2018-02-24T08:28:02.013Z,99501.41
2018-02-24T08:30:30.518Z,99501.56
2018-02-24T08:32:58.990Z,99498.87
2018-02-24T08:35:27.446Z,99493.56
2018-02-24T08:37:55.951Z,99494.38
2018-02-24T08:40:24.511Z,99490.38
2018-02-24T08:42:52.973Z,99487.97
2018-02-24T08:45:21.466Z,99481.58
2018-02-24T08:47:49.974Z,99488.67
2018-02-24T08:50:18.450Z,99481.88
2018-02-24T08:52:46.943Z,99481.86
2018-02-24T08:55:15.445Z,99485.00
2018-02-24T08:57:43.968Z,99483.61
2018-02-24T09:00:12.430Z,99478.16
2018-02-24T09:02:40.933Z,99487.66
2018-02-24T09:05:09.404Z,99486.95
2018-02-24T09:07:37.916Z,99483.89
2018-02-24T09:10:06.425Z,99495.16
2018-02-24T09:12:34.892Z,99492.78
2018-02-24T09:15:03.403Z,99490.58
2018-02-24T09:17:31.908Z,99493.13
2018-02-24T09:20:00.369Z,99485.13
2018-02-24T09:22:28.872Z,99469.07
2018-02-24T09:24:57.336Z,99487.62
2018-02-24T09:27:25.840Z,99494.44
2018-02-24T09:29:54.298Z,99498.95
2018-02-24T09:32:22.786Z,99487.83
2018-02-24T09:34:51.287Z,99487.40
2018-02-24T09:37:19.754Z,99484.70
2018-02-24T09:39:48.249Z,99485.89
2018-02-24T09:42:16.710Z,99491.86
2018-02-24T09:44:45.183Z,99492.95
2018-02-24T09:47:13.647Z,99479.38
2018-02-24T09:49:42.137Z,99482.32
2018-02-24T09:52:10.646Z,99474.13
2018-02-24T09:54:39.109Z,99488.53
2018-02-24T09:57:07.566Z,99479.33
2018-02-24T09:59:36.058Z,99479.38
2018-02-24T10:02:04.523Z,99470.22
2018-02-24T10:04:33.034Z,99471.48
2018-02-24T10:07:01.535Z,99471.87
2018-02-24T10:09:30.023Z,99468.28
2018-02-24T10:11:58.758Z,99467.32
2018-02-24T10:14:27.253Z,99455.19
2018-02-24T10:16:55.746Z,99454.11
2018-02-24T10:19:24.212Z,99447.36
2018-02-24T10:21:52.710Z,99461.97
2018-02-24T10:24:21.166Z,99443.76
2018-02-24T10:26:49.665Z,99447.36
2018-02-24T10:29:18.136Z,99439.17
2018-02-24T10:31:46.637Z,99439.92
2018-02-24T10:34:15.122Z,99429.98
2018-02-24T10:36:43.621Z,99429.74
2018-02-24T10:39:12.109Z,99428.50
2018-02-24T10:41:40.566Z,99420.59
2018-02-24T10:44:09.062Z,99420.64
2018-02-24T10:46:37.527Z,99415.75
2018-02-24T10:49:15.660Z,99412.47
2018-02-24T10:51:44.114Z,99404.70
2018-02-24T10:54:12.620Z,99407.18
2018-02-24T10:56:41.086Z,99401.58
2018-02-24T10:59:09.582Z,99406.21
2018-02-24T11:01:38.043Z,99386.72
2018-02-24T11:04:06.567Z,99407.30
2018-02-24T11:06:35.011Z,99398.78
2018-02-24T11:09:03.536Z,99397.95
2018-02-24T11:11:32.000Z,99393.34
2018-02-24T11:14:00.497Z,99381.52
2018-02-24T11:16:28.943Z,99380.01
2018-02-24T11:18:57.430Z,99375.63
2018-02-24T11:21:25.956Z,99384.59
2018-02-24T11:23:54.427Z,99363.27
2018-02-24T11:26:22.928Z,99361.96
2018-02-24T11:28:51.422Z,99353.89
2018-02-24T11:31:19.905Z,99353.83
2018-02-24T11:33:48.359Z,99349.66
2018-02-24T11:36:16.862Z,99344.72
2018-02-24T11:38:45.321Z,99337.83
2018-02-24T11:41:13.809Z,99334.12
2018-02-24T11:43:42.334Z,99331.29
2018-02-24T11:46:10.830Z,99318.98
2018-02-24T11:48:39.321Z,99309.47
2018-02-24T11:51:07.778Z,99312.22
2018-02-24T11:53:36.305Z,99312.19
2018-02-24T11:56:04.762Z,99309.60
2018-02-24T11:58:33.245Z,99310.42
2018-02-24T12:01:01.762Z,99302.44
2018-02-24T12:03:30.246Z,99302.76
2018-02-24T12:05:58.714Z,99301.05
2018-02-24T12:08:27.206Z,99299.29
2018-02-24T12:10:55.658Z,99294.55
2018-02-24T12:13:24.222Z,99285.42
2018-02-24T12:15:52.682Z,99288.98
2018-02-24T12:18:21.178Z,99284.19
2018-02-24T12:20:49.644Z,99288.70
2018-02-24T12:23:18.125Z,99284.20
2018-02-24T12:25:46.592Z,99266.75
2018-02-24T12:28:15.126Z,99260.41
2018-02-24T12:30:43.590Z,99265.14
2018-02-24T12:33:12.089Z,99257.34
2018-02-24T12:35:40.550Z,99264.64
2018-02-24T12:38:09.057Z,99262.30
2018-02-24T12:40:37.554Z,99261.89
2018-02-24T12:43:06.054Z,99261.63
2018-02-24T12:45:34.550Z,99268.02
2018-02-24T12:48:03.051Z,99260.09
2018-02-24T12:50:31.513Z,99257.58
2018-02-24T12:53:00.025Z,99232.72
2018-02-24T12:55:28.498Z,99247.80
2018-02-24T12:57:56.959Z,99250.02
2018-02-24T13:00:25.474Z,99244.17
2018-02-24T13:02:53.973Z,99242.92
2018-02-24T13:05:22.484Z,99237.16
2018-02-24T13:07:50.942Z,99240.16
2018-02-24T13:10:19.443Z,99241.17
2018-02-24T13:12:47.902Z,99246.39
2018-02-24T13:15:16.398Z,99244.27
2018-02-24T13:17:44.890Z,99233.57
2018-02-24T13:20:13.346Z,99235.66
2018-02-24T13:22:41.839Z,99229.92
2018-02-24T13:25:10.298Z,99230.40
2018-02-24T13:27:38.795Z,99229.88
2018-02-24T13:30:07.264Z,99236.41
2018-02-24T13:32:35.758Z,99234.37
2018-02-24T13:35:04.217Z,99230.58
2018-02-24T13:37:32.741Z,99229.59
2018-02-24T13:40:01.213Z,99223.53
2018-02-24T13:42:29.719Z,99219.88
2018-02-24T13:44:58.185Z,99222.80
2018-02-24T13:47:26.706Z,99223.48
2018-02-24T13:49:55.198Z,99229.14
2018-02-24T13:52:23.692Z,99225.25
2018-02-24T13:54:52.153Z,99221.02
2018-02-24T13:57:20.660Z,99220.36
2018-02-24T13:59:49.146Z,99219.55
2018-02-24T14:02:17.606Z,99208.13
2018-02-24T14:04:46.101Z,99208.77
2018-02-24T14:07:14.557Z,99207.46
2018-02-24T14:09:43.066Z,99204.12
2018-02-24T14:12:11.566Z,99210.00
2018-02-24T14:14:40.037Z,99206.71
2018-02-24T14:17:08.559Z,99207.33
2018-02-24T14:19:37.037Z,99205.22
2018-02-24T14:22:05.490Z,99209.92
2018-02-24T14:24:34.004Z,99210.98
2018-02-24T14:27:02.506Z,99205.82
2018-02-24T14:29:30.958Z,99217.21
2018-02-24T14:31:59.415Z,99211.17
2018-02-24T14:34:27.910Z,99211.00
2018-02-24T14:36:56.410Z,99216.53
2018-02-24T14:39:24.922Z,99217.33
2018-02-24T14:41:53.375Z,99216.81
2018-02-24T14:44:21.854Z,99211.50
2018-02-24T14:46:50.343Z,99206.67
2018-02-24T14:49:18.801Z,99211.69
2018-02-24T14:51:47.289Z,99212.47
2018-02-24T14:54:15.746Z,99206.47
2018-02-24T14:56:44.257Z,99205.42
2018-02-24T14:59:12.713Z,99205.11
2018-02-24T15:01:41.166Z,99200.53
2018-02-24T15:04:09.654Z,99204.01
2018-02-24T15:06:38.182Z,99202.77
2018-02-24T15:09:06.675Z,99193.86
2018-02-24T15:11:35.292Z,99199.37
2018-02-24T15:14:03.786Z,99208.46
2018-02-24T15:16:32.289Z,99210.73
2018-02-24T15:19:00.746Z,99194.22
2018-02-24T15:21:29.261Z,99207.69
2018-02-24T15:23:57.714Z,99209.86
2018-02-24T15:26:26.215Z,99208.63
2018-02-24T15:28:54.734Z,99220.10
2018-02-24T15:31:23.198Z,99218.36
2018-02-24T15:33:51.698Z,99220.30
2018-02-24T15:36:20.230Z,99214.77
2018-02-24T15:38:48.706Z,99226.25
2018-02-24T15:41:17.206Z,99211.47
2018-02-24T15:43:45.647Z,99208.11
2018-02-24T15:46:14.122Z,99216.80
2018-02-24T15:48:42.656Z,99220.67
2018-02-24T15:51:11.110Z,99208.75
2018-02-24T15:53:39.610Z,99214.51
2018-02-24T15:56:08.098Z,99209.80
2018-02-24T15:58:36.594Z,99214.16
2018-02-24T16:01:05.088Z,99208.56
2018-02-24T16:03:33.577Z,99217.19
2018-02-24T16:06:02.069Z,99218.41
2018-02-24T16:08:30.584Z,99203.66
2018-02-24T16:10:59.086Z,99213.28
2018-02-24T16:13:27.571Z,99210.45
2018-02-24T16:15:56.075Z,99225.69
2018-02-24T16:18:24.542Z,99226.13
2018-02-24T16:20:53.052Z,99236.83
2018-02-24T16:23:21.510Z,99232.28
2018-02-24T16:25:49.970Z,99236.74
2018-02-24T16:28:18.467Z,99233.86
2018-02-24T16:30:46.951Z,99232.45
2018-02-24T16:33:15.443Z,99232.02
2018-02-24T16:35:43.902Z,99241.95
2018-02-24T16:38:12.394Z,99248.47
2018-02-24T16:40:40.891Z,99246.80
2018-02-24T16:43:09.354Z,99252.06
2018-02-24T16:45:37.868Z,99246.59
2018-02-24T16:48:06.321Z,99252.48
2018-02-24T16:50:35.409Z,99258.73
2018-02-24T16:53:03.975Z,99257.70
2018-02-24T16:55:32.417Z,99239.61
2018-02-24T16:58:00.871Z,99257.55
2018-02-24T17:00:29.420Z,99254.51
2018-02-24T17:02:57.941Z,99251.17
2018-02-24T17:05:26.410Z,99254.06
2018-02-24T17:07:54.915Z,99247.81
2018-02-24T17:10:23.391Z,99257.16
2018-02-24T17:12:51.887Z,99250.80
2018-02-24T17:15:20.348Z,99254.84
2018-02-24T17:17:48.842Z,99254.48
2018-02-24T17:20:17.313Z,99259.16
2018-02-24T17:22:45.851Z,99261.18
2018-02-24T17:25:14.346Z,99266.38
2018-02-24T17:27:42.866Z,99262.09
2018-02-24T17:30:11.326Z,99262.63
2018-02-24T17:32:39.855Z,99267.62
2018-02-24T17:35:08.345Z,99264.34
2018-02-24T17:37:36.822Z,99261.48
2018-02-24T17:40:05.331Z,99245.95
2018-02-24T17:42:33.850Z,99263.31
2018-02-24T17:45:02.321Z,99264.97
2018-02-24T17:47:30.830Z,99267.38
2018-02-24T17:49:59.306Z,99263.14
2018-02-24T17:52:27.758Z,99261.67
2018-02-24T17:54:56.278Z,99262.95
2018-02-24T17:57:24.757Z,99272.84
2018-02-24T17:59:53.214Z,99266.06
2018-02-24T18:02:21.706Z,99263.56
2018-02-24T18:04:50.211Z,99250.87
2018-02-24T18:07:18.731Z,99271.66
2018-02-24T18:09:47.191Z,99270.44
2018-02-24T18:12:15.693Z,99262.63
2018-02-24T18:14:44.180Z,99275.08
2018-02-24T18:17:12.678Z,99272.03
2018-02-24T18:19:41.188Z,99271.72
2018-02-24T18:22:09.688Z,99277.04
2018-02-24T18:24:38.150Z,99279.36
2018-02-24T18:27:06.655Z,99257.52
2018-02-24T18:29:35.146Z,99268.41
2018-02-24T18:32:03.601Z,99273.45
2018-02-24T18:34:32.095Z,99270.44
2018-02-24T18:37:00.582Z,99271.16
2018-02-24T18:39:29.073Z,99276.36
2018-02-24T18:41:57.531Z,99278.43
2018-02-24T18:44:26.083Z,99279.23
2018-02-24T18:46:54.595Z,99274.31
2018-02-24T18:49:23.068Z,99284.75
2018-02-24T18:51:51.562Z,99287.92
2018-02-24T18:54:20.058Z,99288.41
2018-02-24T18:56:48.517Z,99291.61
2018-02-24T18:59:16.970Z,99293.57
2018-02-24T19:01:45.467Z,99292.84
2018-02-24T19:04:13.986Z,99288.80
2018-02-24T19:06:42.518Z,99291.56
2018-02-24T19:09:10.974Z,99291.70
2018-02-24T19:11:39.472Z,99292.95
2018-02-24T19:14:07.953Z,99298.76
2018-02-24T19:16:36.450Z,99298.36
2018-02-24T19:19:04.941Z,99305.60
2018-02-24T19:21:33.398Z,99302.39
2018-02-24T19:24:01.898Z,99303.81
2018-02-24T19:26:30.350Z,99303.34
2018-02-24T19:28:58.814Z,99280.78
2018-02-24T19:31:27.334Z,99295.27
2018-02-24T19:33:55.826Z,99300.87
2018-02-24T19:36:24.282Z,99303.18
2018-02-24T19:38:52.783Z,99304.12
2018-02-24T19:41:21.279Z,99301.23
2018-02-24T19:43:49.746Z,99303.39
2018-02-24T19:46:18.220Z,99305.67
2018-02-24T19:48:46.714Z,99302.45
2018-02-24T19:51:15.174Z,99300.83
2018-02-24T19:53:43.666Z,99304.95
2018-02-24T19:56:12.131Z,99306.69
2018-02-24T19:58:40.636Z,99308.30
2018-02-24T20:01:09.098Z,99311.06
2018-02-24T20:03:37.585Z,99313.02
2018-02-24T20:06:06.077Z,99308.49
2018-02-24T20:08:34.584Z,99306.21
2018-02-24T20:11:03.042Z,99314.56
2018-02-24T20:13:31.534Z,99302.55
2018-02-24T20:15:59.994Z,99318.92
2018-02-24T20:18:28.480Z,99314.52
2018-02-24T20:20:56.938Z,99312.63
2018-02-24T20:23:25.432Z,99307.91
2018-02-24T20:25:53.955Z,99314.58
2018-02-24T20:28:22.419Z,99301.06
2018-02-24T20:30:50.910Z,99311.77
2018-02-24T20:33:19.376Z,99318.41
2018-02-24T20:35:47.867Z,99315.70
2018-02-24T20:38:16.334Z,99318.41
2018-02-24T20:40:44.840Z,99316.27
2018-02-24T20:43:13.306Z,99308.80
2018-02-24T20:45:41.785Z,99299.83
2018-02-24T20:48:10.314Z,99306.77
2018-02-24T20:50:38.774Z,99299.23
2018-02-24T20:53:07.270Z,99299.12
2018-02-24T20:55:35.767Z,99308.92
2018-02-24T20:58:05.018Z,99312.88
2018-02-24T21:00:33.875Z,99312.23
2018-02-24T21:03:02.369Z,99305.70
2018-02-24T21:05:30.822Z,99309.61
2018-02-24T21:07:59.299Z,99320.02
2018-02-24T21:10:28.714Z,99314.84
2018-02-24T21:12:57.166Z,99317.34
2018-02-24T21:15:25.658Z,99311.49
2018-02-24T21:17:54.158Z,99310.95
2018-02-24T21:20:22.612Z,99314.72
2018-02-24T21:22:51.121Z,99321.63
2018-02-24T21:25:19.586Z,99318.98
2018-02-24T21:27:48.054Z,99325.48
2018-02-24T21:30:16.661Z,99332.64
2018-02-24T21:32:45.122Z,99337.00
2018-02-24T21:35:13.616Z,99333.16
2018-02-24T21:37:42.128Z,99330.52
2018-02-24T21:40:10.586Z,99330.98
2018-02-24T21:42:39.080Z,99337.09
2018-02-24T21:45:07.537Z,99332.10
2018-02-24T21:47:36.040Z,99334.66
2018-02-24T21:50:04.483Z,99336.53
2018-02-24T21:52:32.970Z,99337.27
2018-02-24T21:55:01.429Z,99337.05
2018-02-24T21:57:29.958Z,99342.77
2018-02-24T21:59:58.421Z,99340.35
2018-02-24T22:02:26.914Z,99343.53
2018-02-24T22:04:55.427Z,99343.13
2018-02-24T22:07:24.543Z,99342.42
2018-02-24T22:09:52.993Z,99341.08
2018-02-24T22:12:21.481Z,99346.42
2018-02-24T22:14:49.949Z,99350.72
2018-02-24T22:17:18.442Z,99350.87
2018-02-24T22:19:46.965Z,99340.67
2018-02-24T22:22:15.468Z,99350.05
2018-02-24T22:24:43.957Z,99352.34
2018-02-24T22:27:12.450Z,99360.37
2018-02-24T22:29:40.947Z,99358.31
2018-02-24T22:32:09.439Z,99352.34
2018-02-24T22:34:37.911Z,99360.03
2018-02-24T22:37:06.402Z,99355.72
2018-02-24T22:39:34.885Z,99362.66
2018-02-24T22:42:03.438Z,99362.53
2018-02-24T22:44:31.950Z,99359.17
2018-02-24T22:47:00.412Z,99365.87
2018-02-24T22:49:28.884Z,99365.28
2018-02-24T22:51:57.378Z,99363.08
2018-02-24T22:54:25.867Z,99367.16
2018-02-24T22:56:54.324Z,99363.14
2018-02-24T22:59:22.823Z,99355.59
2018-02-24T23:01:51.314Z,99357.95
2018-02-24T23:04:19.761Z,99364.23
2018-02-24T23:06:48.222Z,99366.91
2018-02-24T23:09:16.722Z,99363.57
2018-02-24T23:11:45.190Z,99360.75
2018-02-24T23:14:13.714Z,99352.27
2018-02-24T23:16:42.166Z,99363.03
2018-02-24T23:19:10.638Z,99357.69
2018-02-24T23:21:39.098Z,99357.90
2018-02-24T23:24:07.602Z,99370.41
2018-02-24T23:26:36.066Z,99370.17
2018-02-24T23:29:05.410Z,99370.00
2018-02-24T23:31:33.958Z,99370.83
2018-02-24T23:34:02.457Z,99373.73
2018-02-24T23:36:30.953Z,99371.03
2018-02-24T23:38:59.451Z,99368.67
2018-02-24T23:41:27.915Z,99370.19
2018-02-24T23:43:56.432Z,99376.27
2018-02-24T23:46:24.897Z,99380.00
2018-02-24T23:48:53.352Z,99372.52
2018-02-24T23:51:21.886Z,99383.77
2018-02-24T23:53:50.357Z,99381.77
2018-02-24T23:56:18.857Z,99379.92
2018-02-24T23:58:47.352Z,99389.11
